Time;durP1;ratioP1;P1;durP2;ratioP2;P2;SDS_P1;SDS_P2;PMS_P1;PMS_P2;Temp;Humidity;BMP_temperature;BMP_pressure;BME280_temperature;BME280_humidity;BME280_pressure;Samples;Min_cycle;Max_cycle;Signal;HPM_P1;HPM_P2
2022/10/25 00:01:45;;;;;;;18.45;2.40;;;11.60;99.90;;;;;;5016540;28;20064;-73
2022/10/25 00:04:14;;;;;;;22.80;2.60;;;11.60;99.90;;;;;;5035485;28;20472;-73
2022/10/25 00:06:42;;;;;;;26.92;2.50;;;11.50;99.90;;;;;;5035334;28;20338;-73
2022/10/25 00:09:10;;;;;;;18.23;2.38;;;11.50;99.90;;;;;;5033807;28;20376;-73
2022/10/25 00:11:37;;;;;;;21.77;2.63;;;11.50;99.90;;;;;;5034945;28;20473;-73
2022/10/25 00:14:06;;;;;;;23.63;2.50;;;11.50;99.90;;;;;;5035055;28;20488;-73
2022/10/25 00:16:36;;;;;;;24.17;2.55;;;11.50;99.90;;;;;;5033926;28;20045;-73
2022/10/25 00:19:05;;;;;;;22.17;2.60;;;11.50;99.90;;;;;;5033891;28;20061;-73
2022/10/25 00:21:32;;;;;;;;;;;11.60;99.90;;;;;;5034169;28;20045;-73
2022/10/25 00:23:59;;;;;;;24.77;2.50;;;11.40;99.90;;;;;;5034837;28;19921;-72
2022/10/25 00:26:27;;;;;;;25.88;2.80;;;11.40;99.90;;;;;;5035299;28;20733;-73
2022/10/25 00:28:55;;;;;;;23.73;2.67;;;11.60;99.90;;;;;;5016479;28;20050;-73
2022/10/25 00:31:23;;;;;;;24.63;2.53;;;11.40;99.90;;;;;;5017269;28;20045;-73
2022/10/25 00:33:51;;;;;;;19.88;2.40;;;11.40;99.90;;;;;;5034629;28;20457;-73
2022/10/25 00:36:21;;;;;;;25.85;2.30;;;11.40;99.90;;;;;;5033814;28;20044;-72
2022/10/25 00:38:49;;;;;;;24.42;2.45;;;11.70;99.90;;;;;;5034780;28;20046;-73
2022/10/25 00:41:19;;;;;;;;;;;11.30;99.90;;;;;;5035241;28;20460;-72
2022/10/25 00:43:49;;;;;;;26.40;2.40;;;11.30;99.90;;;;;;5016199;28;19921;-73
2022/10/25 00:46:23;;;;;;;22.88;2.65;;;11.30;99.90;;;;;;5034519;28;20056;-73
2022/10/25 00:48:59;;;;;;;20.33;2.42;;;11.40;99.90;;;;;;5034108;28;20053;-73
2022/10/25 00:51:54;;;;;;;23.20;2.47;;;11.30;99.90;;;;;;5034682;28;20376;-73
2022/10/25 00:54:29;;;;;;;26.25;2.65;;;11.30;99.90;;;;;;5025772;28;20064;-73
2022/10/25 00:57:03;;;;;;;29.13;2.80;;;11.30;99.90;;;;;;5033356;28;20050;-72
2022/10/25 00:59:31;;;;;;;22.08;2.55;;;11.30;99.90;;;;;;5034739;28;20050;-73
2022/10/25 01:01:59;;;;;;;24.73;2.45;;;11.30;99.90;;;;;;5033273;28;20045;-72
2022/10/25 01:04:29;;;;;;;19.60;2.50;;;11.30;99.90;;;;;;5034471;28;20365;-73
2022/10/25 01:06:58;;;;;;;30.48;3.13;;;11.30;99.90;;;;;;5034308;28;20049;-73
2022/10/25 01:09:29;;;;;;;30.65;2.75;;;11.20;99.90;;;;;;5033632;28;20041;-73
2022/10/25 01:11:56;;;;;;;29.45;2.70;;;11.30;99.90;;;;;;5017407;28;20049;-72
2022/10/25 01:14:25;;;;;;;18.30;2.47;;;11.40;99.90;;;;;;5017438;28;20041;-73
2022/10/25 01:17:10;;;;;;;30.33;2.88;;;11.30;99.90;;;;;;5017428;28;20479;-73
2022/10/25 01:20:24;;;;;;;25.05;3.03;;;11.30;99.90;;;;;;5037984;28;20045;-73
2022/10/25 01:23:09;;;;;;;22.60;2.40;;;12.60;99.90;;;;;;4957196;29;20051;-73
2022/10/25 01:25:57;;;;;;;27.40;2.90;;;11.30;99.90;;;;;;4958336;29;20051;-73
2022/10/25 01:28:34;;;;;;;23.55;2.33;;;11.30;99.90;;;;;;5021633;28;20053;-73
2022/10/25 01:31:33;;;;;;;31.25;2.80;;;11.30;99.90;;;;;;5038210;28;20048;-73
2022/10/25 01:34:10;;;;;;;23.50;2.95;;;11.30;99.90;;;;;;5023073;28;20053;-73
2022/10/25 01:36:55;;;;;;;24.38;2.83;;;11.40;99.90;;;;;;5037045;28;20052;-72
2022/10/25 01:39:39;;;;;;;27.30;2.88;;;11.50;99.90;;;;;;5021087;28;20472;-73
2022/10/25 01:42:15;;;;;;;22.13;2.28;;;11.50;99.90;;;;;;5036822;28;20051;-73
2022/10/25 01:45:14;;;;;;;23.00;2.20;;;11.60;99.90;;;;;;5038053;28;20054;-73
2022/10/25 01:47:52;;;;;;;25.17;2.63;;;11.80;99.90;;;;;;5037926;28;20049;-72
2022/10/25 01:50:29;;;;;;;20.40;2.17;;;11.90;99.90;;;;;;5036623;28;20048;-73
2022/10/25 01:52:57;;;;;;;18.65;2.35;;;12.00;99.90;;;;;;5037763;28;20041;-73
2022/10/25 01:55:33;;;;;;;16.17;2.00;;;12.10;99.90;;;;;;5036394;28;20052;-73
2022/10/25 01:58:10;;;;;;;22.83;2.10;;;12.10;99.90;;;;;;5037394;28;20049;-73
2022/10/25 02:00:57;;;;;;;18.45;2.63;;;12.10;99.90;;;;;;5037609;28;20116;-73
2022/10/25 02:03:53;;;;;;;22.08;1.98;;;12.20;99.90;;;;;;5036188;28;20060;-72
2022/10/25 02:06:33;;;;;;;20.38;2.53;;;12.10;99.90;;;;;;5029889;28;20061;-73
2022/10/25 02:09:33;;;;;;;19.50;2.08;;;12.00;99.90;;;;;;5036110;28;20060;-73
2022/10/25 02:12:06;;;;;;;27.55;2.50;;;12.00;99.90;;;;;;5020248;28;20053;-73
2022/10/25 02:14:37;;;;;;;25.83;2.17;;;12.00;99.90;;;;;;5037387;28;20045;-73
2022/10/25 02:17:16;;;;;;;18.88;2.38;;;11.90;99.90;;;;;;5018519;28;20056;-73
2022/10/25 02:19:49;;;;;;;25.45;2.58;;;11.90;99.90;;;;;;5037024;28;20037;-73
2022/10/25 02:22:19;;;;;;;19.85;2.13;;;11.90;99.90;;;;;;5036219;28;20049;-73
2022/10/25 02:24:49;;;;;;;23.42;2.42;;;11.90;99.90;;;;;;5037559;28;20045;-73
2022/10/25 02:27:19;;;;;;;22.98;2.60;;;11.80;99.90;;;;;;5036806;28;20041;-73
2022/10/25 02:29:47;;;;;;;22.95;2.70;;;11.90;99.90;;;;;;5001609;28;20398;-73
2022/10/25 02:32:14;;;;;;;21.52;2.40;;;11.80;99.90;;;;;;5036605;28;20038;-72
2022/10/25 02:34:45;;;;;;;24.75;2.70;;;11.80;99.90;;;;;;5036727;28;20456;-72
2022/10/25 02:37:13;;;;;;;22.85;2.53;;;11.80;99.90;;;;;;5036668;28;20490;-73
2022/10/25 02:39:41;;;;;;;27.05;2.70;;;11.80;99.90;;;;;;5037149;28;20042;-73
2022/10/25 02:42:09;;;;;;;29.50;2.55;;;11.70;99.90;;;;;;5035530;28;20052;-72
2022/10/25 02:44:36;;;;;;;25.00;2.60;;;11.70;99.90;;;;;;5037005;28;20045;-73
2022/10/25 02:47:04;;;;;;;33.07;2.70;;;11.90;99.90;;;;;;5036505;28;20060;-73
2022/10/25 02:49:31;;;;;;;30.30;2.72;;;11.70;99.90;;;;;;5035399;28;20041;-73
2022/10/25 02:51:59;;;;;;;27.23;2.65;;;11.60;99.90;;;;;;5036481;28;20045;-73
2022/10/25 02:54:26;;;;;;;26.02;2.65;;;11.60;99.90;;;;;;5036822;28;20053;-73
2022/10/25 02:56:53;;;;;;;29.98;2.72;;;11.60;99.90;;;;;;5035237;28;20057;-72
2022/10/25 02:59:21;;;;;;;21.23;2.83;;;11.50;99.90;;;;;;5036455;28;20045;-72
2022/10/25 03:01:48;;;;;;;23.70;2.83;;;11.60;99.90;;;;;;5035653;28;20064;-72
2022/10/25 03:04:17;;;;;;;30.90;2.55;;;11.60;99.90;;;;;;5036171;28;20056;-72
2022/10/25 03:06:44;;;;;;;;;;;11.50;99.90;;;;;;5036612;28;20471;-73
2022/10/25 03:09:11;;;;;;;26.67;2.53;;;11.50;99.90;;;;;;5035132;28;19921;-72
2022/10/25 03:11:39;;;;;;;32.40;2.80;;;11.50;99.90;;;;;;5036109;28;20037;-73
2022/10/25 03:14:06;;;;;;;26.10;2.88;;;11.50;99.90;;;;;;5035888;28;20041;-72
2022/10/25 03:16:34;;;;;;;28.73;2.90;;;11.60;99.90;;;;;;5034937;28;20041;-72
2022/10/25 03:19:01;;;;;;;26.20;3.22;;;11.50;99.90;;;;;;5035682;28;20472;-73
2022/10/25 03:21:29;;;;;;;38.50;3.03;;;11.40;99.90;;;;;;5035139;28;20053;-73
2022/10/25 03:23:56;;;;;;;37.05;3.22;;;11.90;99.90;;;;;;5036055;28;20064;-73
2022/10/25 03:26:24;;;;;;;32.85;3.15;;;11.40;99.90;;;;;;5035731;28;20061;-73
2022/10/25 03:28:51;;;;;;;35.00;3.00;;;11.30;99.90;;;;;;5034573;28;20050;-73
2022/10/25 03:31:21;;;;;;;22.50;2.78;;;11.30;99.90;;;;;;5018399;28;20045;-73
2022/10/25 03:33:50;;;;;;;18.55;2.95;;;11.30;99.90;;;;;;5036151;28;20045;-72
2022/10/25 03:36:17;;;;;;;27.52;2.97;;;11.80;99.90;;;;;;5034655;28;20378;-72
2022/10/25 03:38:44;;;;;;;32.60;2.92;;;11.30;99.90;;;;;;5018565;28;20041;-73
2022/10/25 03:41:12;;;;;;;32.20;3.03;;;11.60;99.90;;;;;;5035387;28;20041;-73
2022/10/25 03:43:39;;;;;;;23.17;3.10;;;11.20;99.90;;;;;;5034394;28;20290;-73
2022/10/25 03:46:07;;;;;;;22.27;2.97;;;11.20;99.90;;;;;;5035378;28;20064;-73
2022/10/25 03:48:35;;;;;;;30.25;3.00;;;11.20;99.90;;;;;;5034238;28;20049;-72
2022/10/25 03:51:02;;;;;;;25.77;2.78;;;11.40;99.90;;;;;;5018037;28;20061;-73
2022/10/25 03:53:30;;;;;;;23.85;2.60;;;11.10;99.90;;;;;;5035448;28;20050;-73
2022/10/25 03:55:57;;;;;;;25.75;2.85;;;11.00;99.90;;;;;;5034290;28;20049;-72
2022/10/25 03:58:25;;;;;;;31.27;2.97;;;11.00;99.90;;;;;;5035377;28;20127;-73
2022/10/25 04:00:52;;;;;;;25.35;2.80;;;11.00;99.90;;;;;;5035142;28;20508;-72
2022/10/25 04:03:20;;;;;;;26.88;3.03;;;11.30;99.90;;;;;;5034207;28;20041;-73
2022/10/25 04:05:47;;;;;;;31.25;3.25;;;11.10;99.90;;;;;;5035372;28;20061;-72
2022/10/25 04:08:15;;;;;;;32.30;3.35;;;10.90;99.90;;;;;;5033922;28;20495;-72
2022/10/25 04:10:42;;;;;;;24.17;2.80;;;10.90;99.90;;;;;;5035253;28;20360;-72
2022/10/25 04:13:10;;;;;;;28.65;2.83;;;10.90;99.90;;;;;;5035362;28;20053;-73
2022/10/25 04:15:37;;;;;;;31.02;3.22;;;10.90;99.90;;;;;;5033924;28;20041;-73
2022/10/25 04:18:05;;;;;;;28.50;3.08;;;10.80;99.90;;;;;;5034773;28;20053;-73
2022/10/25 04:20:32;;;;;;;30.60;3.53;;;10.90;99.90;;;;;;5034978;28;20053;-73
2022/10/25 04:23:00;;;;;;;29.95;3.05;;;11.30;99.90;;;;;;5033732;28;20056;-73
2022/10/25 04:25:27;;;;;;;23.10;3.40;;;11.90;99.90;;;;;;5034931;28;20056;-73
2022/10/25 04:27:57;;;;;;;26.48;3.00;;;11.10;99.90;;;;;;5017754;28;20748;-73
2022/10/25 04:30:25;;;;;;;30.70;3.30;;;11.10;99.90;;;;;;5000066;28;20057;-73
2022/10/25 04:32:52;;;;;;;29.67;3.15;;;10.80;99.90;;;;;;5034883;28;20356;-73
2022/10/25 04:35:20;;;;;;;36.05;3.50;;;10.80;99.90;;;;;;5033832;28;20052;-72
2022/10/25 04:37:48;;;;;;;33.67;3.15;;;10.90;99.90;;;;;;5034668;28;20042;-73
2022/10/25 04:40:15;;;;;;;39.72;3.55;;;11.30;99.90;;;;;;5034744;28;20041;-73
2022/10/25 04:42:47;;;;;;;34.58;3.03;;;10.80;99.90;;;;;;5033828;28;20056;-73
2022/10/25 04:45:15;;;;;;;42.17;3.40;;;10.80;99.90;;;;;;5035377;28;20041;-73
2022/10/25 04:47:42;;;;;;;38.60;3.63;;;10.80;99.90;;;;;;5034511;28;20049;-73
2022/10/25 04:50:10;;;;;;;28.63;3.38;;;11.30;99.90;;;;;;5016345;28;20457;-72
2022/10/25 04:52:37;;;;;;;34.47;2.90;;;10.90;99.90;;;;;;5037571;28;20042;-73
2022/10/25 04:55:05;;;;;;;32.60;3.37;;;10.90;99.90;;;;;;5037766;28;20451;-72
2022/10/25 04:57:32;;;;;;;27.52;3.22;;;10.90;99.90;;;;;;5038657;28;20081;-73
2022/10/25 05:00:00;;;;;;;39.08;3.63;;;10.90;99.90;;;;;;5038877;28;20050;-73
2022/10/25 05:02:27;;;;;;;33.28;3.33;;;10.90;99.90;;;;;;5037287;28;20453;-73
2022/10/25 05:04:55;;;;;;;40.45;3.53;;;10.90;99.90;;;;;;5021451;28;20049;-73
2022/10/25 05:07:22;;;;;;;37.00;3.88;;;10.90;99.90;;;;;;5038265;28;20049;-73
2022/10/25 05:09:50;;;;;;;31.75;3.20;;;10.90;99.90;;;;;;5037353;28;20365;-73
2022/10/25 05:12:17;;;;;;;28.52;3.15;;;10.90;99.90;;;;;;5038441;28;20046;-73
2022/10/25 05:14:45;;;;;;;28.40;3.22;;;11.00;99.90;;;;;;5037437;28;20045;-73
2022/10/25 05:17:12;;;;;;;24.70;2.92;;;11.00;99.90;;;;;;5038219;28;20041;-73
2022/10/25 05:19:39;;;;;;;32.28;3.33;;;11.30;99.90;;;;;;5038639;28;20061;-72
2022/10/25 05:22:07;;;;;;;29.38;3.10;;;11.00;99.90;;;;;;5037208;28;20048;-72
2022/10/25 05:24:35;;;;;;;31.25;2.85;;;11.00;99.90;;;;;;5038077;28;20045;-72
2022/10/25 05:27:03;;;;;;;37.15;3.47;;;11.00;99.90;;;;;;5038011;28;20049;-73
2022/10/25 05:29:31;;;;;;;34.70;3.42;;;10.90;99.90;;;;;;5036778;28;20042;-72
2022/10/25 05:31:58;;;;;;;32.90;3.00;;;10.90;99.90;;;;;;5038345;28;20045;-73
2022/10/25 05:34:26;;;;;;;34.35;3.63;;;11.00;99.90;;;;;;5021151;28;20049;-73
2022/10/25 05:36:54;;;;;;;25.40;3.00;;;10.90;99.90;;;;;;5036894;28;20049;-73
2022/10/25 05:39:21;;;;;;;33.35;3.22;;;11.00;99.90;;;;;;5020556;28;20042;-73
2022/10/25 05:41:49;;;;;;;37.08;3.60;;;11.00;99.90;;;;;;5019209;28;20049;-73
2022/10/25 05:44:16;;;;;;;35.42;3.83;;;11.10;99.90;;;;;;5037617;28;20372;-73
2022/10/25 05:46:44;;;;;;;26.75;3.50;;;11.10;99.90;;;;;;5038253;28;20060;-73
2022/10/25 05:49:11;;;;;;;27.98;3.35;;;11.30;99.90;;;;;;5036666;28;20053;-73
2022/10/25 05:51:39;;;;;;;31.00;3.23;;;11.30;99.90;;;;;;5037457;28;20372;-73
2022/10/25 05:54:10;;;;;;;33.63;3.83;;;11.20;99.90;;;;;;5037812;28;20275;-73
2022/10/25 05:56:38;;;;;;;26.38;3.95;;;11.20;99.90;;;;;;5036297;28;20482;-72
2022/10/25 05:59:08;;;;;;;29.20;3.45;;;11.40;99.90;;;;;;5020294;28;20052;-73
2022/10/25 06:01:38;;;;;;;34.67;3.05;;;11.40;99.90;;;;;;5036820;28;20041;-73
2022/10/25 06:04:06;;;;;;;31.80;3.42;;;11.40;99.90;;;;;;5037201;28;20056;-72
2022/10/25 06:06:35;;;;;;;34.97;3.50;;;11.40;99.90;;;;;;5037364;28;20048;-73
2022/10/25 06:09:02;;;;;;;33.95;3.30;;;11.40;99.90;;;;;;5036003;28;20368;-73
2022/10/25 06:11:30;;;;;;;28.88;3.00;;;11.40;99.90;;;;;;5035421;28;20372;-73
2022/10/25 06:13:58;;;;;;;24.73;3.03;;;11.40;99.90;;;;;;5037861;28;20049;-72
2022/10/25 06:16:26;;;;;;;28.63;2.92;;;11.40;99.90;;;;;;5036551;28;20341;-73
2022/10/25 06:18:53;;;;;;;25.92;3.22;;;11.40;99.90;;;;;;5037483;28;20053;-73
2022/10/25 06:21:29;;;;;;;34.10;3.00;;;11.40;99.90;;;;;;5037158;28;20064;-73
2022/10/25 06:23:58;;;;;;;35.05;3.58;;;11.40;99.90;;;;;;5037428;28;20050;-73
2022/10/25 06:26:29;;;;;;;26.17;3.00;;;11.40;99.90;;;;;;5036923;28;20053;-73
2022/10/25 06:28:58;;;;;;;34.40;3.53;;;11.40;99.90;;;;;;5036318;28;20060;-73
2022/10/25 06:31:27;;;;;;;40.53;3.60;;;11.40;99.90;;;;;;5037161;28;20380;-73
2022/10/25 06:33:54;;;;;;;24.38;3.00;;;11.40;99.90;;;;;;5036699;28;20385;-73
2022/10/25 06:36:23;;;;;;;29.60;3.45;;;11.40;99.90;;;;;;5036104;28;20053;-73
2022/10/25 06:38:51;;;;;;;35.17;3.08;;;11.40;99.90;;;;;;5037388;28;20052;-73
2022/10/25 06:41:19;;;;;;;38.15;3.50;;;11.40;99.90;;;;;;5037084;28;20056;-73
2022/10/25 06:43:48;;;;;;;34.90;3.25;;;11.40;99.90;;;;;;5035681;28;20042;-73
2022/10/25 06:46:23;;;;;;;32.33;3.22;;;11.30;99.90;;;;;;5036775;28;20400;-73
2022/10/25 06:48:52;;;;;;;35.72;3.33;;;11.30;99.90;;;;;;5018975;28;20355;-73
2022/10/25 06:51:20;;;;;;;28.45;3.55;;;11.30;99.90;;;;;;5036702;28;20049;-73
2022/10/25 06:54:00;;;;;;;33.85;3.75;;;11.30;99.90;;;;;;5036041;28;20487;-73
2022/10/25 06:56:28;;;;;;;33.80;4.15;;;11.30;99.90;;;;;;5035258;28;20045;-72
2022/10/25 06:58:55;;;;;;;33.53;3.58;;;11.30;99.90;;;;;;5036090;28;20056;-72
2022/10/25 07:01:24;;;;;;;40.95;3.70;;;11.30;99.90;;;;;;5036030;28;20046;-73
2022/10/25 07:03:53;;;;;;;38.67;4.03;;;11.40;99.90;;;;;;5036253;28;20053;-72
2022/10/25 07:06:27;;;;;;;25.02;4.03;;;11.50;99.90;;;;;;5036128;28;20041;-72
2022/10/25 07:08:57;;;;;;;30.73;4.18;;;11.50;99.90;;;;;;5034595;28;20045;-72
2022/10/25 07:11:26;;;;;;;31.58;3.95;;;11.60;99.90;;;;;;5035894;28;20053;-72
2022/10/25 07:13:57;;;;;;;33.20;4.30;;;11.60;99.90;;;;;;5035212;28;20044;-72
2022/10/25 07:16:25;;;;;;;39.50;3.90;;;11.60;99.90;;;;;;5015571;28;20049;-72
2022/10/25 07:19:01;;;;;;;32.10;3.75;;;11.70;99.90;;;;;;5030368;28;20045;-72
2022/10/25 07:21:30;;;;;;;32.22;3.33;;;11.80;99.90;;;;;;5034532;28;20049;-72
2022/10/25 07:23:57;;;;;;;34.92;3.72;;;11.90;99.90;;;;;;5035191;28;20468;-72
2022/10/25 07:26:31;;;;;;;29.88;3.65;;;12.00;99.90;;;;;;5037308;28;20057;-72
2022/10/25 07:29:00;;;;;;;40.08;3.90;;;12.10;99.90;;;;;;5034321;28;20056;-73
2022/10/25 07:31:34;;;;;;;33.88;3.38;;;12.50;99.90;;;;;;5034534;28;20064;-73
2022/10/25 07:34:03;;;;;;;23.90;3.50;;;12.20;99.90;;;;;;5035457;28;20041;-72
2022/10/25 07:36:30;;;;;;;34.55;4.10;;;12.30;99.90;;;;;;5034182;28;20045;-74
2022/10/25 07:38:58;;;;;;;32.08;3.35;;;12.40;99.90;;;;;;5035024;28;20045;-75
2022/10/25 07:41:26;;;;;;;39.40;3.60;;;12.40;99.90;;;;;;5017165;28;20061;-72
2022/10/25 07:43:54;;;;;;;25.23;2.95;;;13.00;99.90;;;;;;5035230;28;20056;-76
2022/10/25 07:46:22;;;;;;;28.38;3.20;;;12.50;99.90;;;;;;5035191;28;20045;-73
2022/10/25 07:48:51;;;;;;;23.38;2.53;;;12.50;99.90;;;;;;5033639;28;20080;-75
2022/10/25 07:51:19;;;;;;;26.40;2.70;;;12.60;99.90;;;;;;5054399;28;20045;-72
2022/10/25 07:53:47;;;;;;;36.17;2.63;;;12.60;99.90;;;;;;5054354;28;20040;-73
2022/10/25 07:56:17;;;;;;;23.77;2.42;;;12.70;99.90;;;;;;5054640;28;20049;-73
2022/10/25 07:58:51;;;;;;;28.67;2.90;;;12.60;99.90;;;;;;5051648;28;20356;-73
2022/10/25 08:01:21;;;;;;;17.00;2.50;;;12.60;99.90;;;;;;5054764;28;20064;-72
2022/10/25 08:03:51;;;;;;;20.05;2.25;;;12.50;99.90;;;;;;5054041;28;20045;-76
2022/10/25 08:06:20;;;;;;;21.10;2.20;;;12.40;99.90;;;;;;5054689;28;20045;-73
2022/10/25 08:08:48;;;;;;;20.25;2.20;;;12.70;99.90;;;;;;5054179;28;20052;-73
2022/10/25 08:11:16;;;;;;;16.88;2.67;;;12.40;99.90;;;;;;5055064;28;20045;-74
2022/10/25 08:13:47;;;;;;;19.05;2.55;;;12.30;99.90;;;;;;5054146;28;20049;-76
2022/10/25 08:16:15;;;;;;;25.23;2.97;;;12.30;99.90;;;;;;5053920;28;20052;-74
2022/10/25 08:18:43;;;;;;;21.13;2.90;;;12.30;99.90;;;;;;5038530;28;20057;-73
2022/10/25 08:21:10;;;;;;;24.23;2.72;;;12.30;99.90;;;;;;5017506;28;20484;-75
2022/10/25 08:23:38;;;;;;;27.70;3.17;;;12.30;99.90;;;;;;5034102;28;20472;-75
2022/10/25 08:26:05;;;;;;;26.80;3.10;;;12.30;99.90;;;;;;5034672;28;20061;-75
2022/10/25 08:28:33;;;;;;;20.52;2.80;;;12.30;99.90;;;;;;5034242;28;20052;-74
2022/10/25 08:31:03;;;;;;;23.15;3.22;;;12.40;99.90;;;;;;5034915;28;20121;-73
2022/10/25 08:33:32;;;;;;;21.67;3.17;;;12.60;99.90;;;;;;5018170;28;20038;-76
2022/10/25 08:36:00;;;;;;;21.67;3.00;;;12.50;99.90;;;;;;5034048;28;20048;-76
2022/10/25 08:38:28;;;;;;;34.40;3.63;;;12.60;99.90;;;;;;5035377;28;20042;-75
2022/10/25 08:41:09;;;;;;;24.33;3.58;;;12.90;99.90;;;;;;5034850;28;20052;-76
2022/10/25 08:44:03;;;;;;;32.00;4.10;;;12.70;99.90;;;;;;5033636;28;20049;-75
2022/10/25 08:46:42;;;;;;;27.83;3.50;;;12.90;99.90;;;;;;5034812;28;20049;-73
2022/10/25 08:49:25;;;;;;;33.63;3.67;;;12.90;99.90;;;;;;5033491;28;20046;-74
2022/10/25 08:51:55;;;;;;;28.25;3.47;;;13.00;99.90;;;;;;5035370;28;20049;-73
2022/10/25 08:54:27;;;;;;;24.80;3.63;;;13.10;99.90;;;;;;5034579;28;20064;-74
2022/10/25 08:57:22;;;;;;;28.25;2.97;;;13.20;99.90;;;;;;5033297;28;20346;-74
2022/10/25 09:00:09;;;;;;;26.10;3.00;;;13.30;99.90;;;;;;5016815;28;20049;-76
2022/10/25 09:02:50;;;;;;;28.67;3.40;;;13.40;99.90;;;;;;5033295;28;20045;-74
2022/10/25 09:05:47;;;;;;;24.40;3.13;;;13.50;99.90;;;;;;5024280;28;20053;-75
2022/10/25 09:08:27;;;;;;;30.83;2.73;;;13.50;99.90;;;;;;4998078;28;20050;-74
2022/10/25 09:11:13;;;;;;;21.88;2.70;;;13.50;99.90;;;;;;5014452;28;20746;-75
2022/10/25 09:14:02;;;;;;;21.95;3.00;;;13.50;99.90;;;;;;5014299;28;20369;-76
2022/10/25 09:16:35;;;;;;;34.45;3.17;;;13.60;99.90;;;;;;5013276;28;20045;-75
2022/10/25 09:19:14;;;;;;;26.13;3.22;;;13.70;99.90;;;;;;5031199;28;20062;-73
2022/10/25 09:22:01;;;;;;;26.70;2.90;;;13.70;99.90;;;;;;5033088;28;20042;-75
2022/10/25 09:24:42;;;;;;;20.38;2.78;;;13.80;99.90;;;;;;5049823;28;20360;-74
2022/10/25 09:27:18;;;;;;;34.38;3.35;;;13.90;99.90;;;;;;5033123;28;20054;-73
2022/10/25 09:29:59;;;;;;;29.13;3.35;;;13.90;99.90;;;;;;5032976;28;20049;-74
2022/10/25 09:32:48;;;;;;;24.42;2.40;;;14.00;99.90;;;;;;5033654;28;20064;-74
2022/10/25 09:35:50;;;;;;;27.75;2.88;;;14.00;99.90;;;;;;5032915;28;20469;-75
2022/10/25 09:38:42;;;;;;;23.35;2.47;;;14.10;99.90;;;;;;5032407;28;20041;-76
2022/10/25 09:41:25;;;;;;;31.77;3.08;;;14.10;99.90;;;;;;5053391;28;20042;-74
2022/10/25 09:44:12;;;;;;;20.90;2.63;;;14.10;99.90;;;;;;5037482;28;20057;-76
2022/10/25 09:46:56;;;;;;;26.90;3.00;;;14.10;99.90;;;;;;5037137;28;20407;-76
2022/10/25 09:49:47;;;;;;;25.02;2.70;;;14.20;99.90;;;;;;5036492;28;20065;-75
2022/10/25 09:52:32;;;;;;;28.05;3.42;;;14.20;99.90;;;;;;5037472;28;20049;-73
2022/10/25 09:55:25;;;;;;;24.38;2.45;;;14.30;99.90;;;;;;5036110;28;20041;-74
2022/10/25 09:57:53;;;;;;;22.77;3.20;;;14.30;99.90;;;;;;5037330;28;20045;-74
2022/10/25 10:00:21;;;;;;;23.80;2.85;;;14.30;99.90;;;;;;5037106;28;20041;-73
2022/10/25 10:02:48;;;;;;;24.17;3.13;;;14.40;99.90;;;;;;5035838;28;20037;-75
2022/10/25 10:05:19;;;;;;;26.50;3.20;;;14.50;99.90;;;;;;5036440;28;20530;-73
2022/10/25 10:07:48;;;;;;;25.55;3.00;;;14.50;99.90;;;;;;5037277;28;20060;-75
2022/10/25 10:10:23;;;;;;;22.88;3.28;;;14.60;99.90;;;;;;5035188;28;20396;-75
2022/10/25 10:13:00;;;;;;;18.08;3.10;;;14.60;99.90;;;;;;5036843;28;20053;-75
2022/10/25 10:15:33;;;;;;;22.73;3.20;;;14.60;99.90;;;;;;5034563;28;20056;-73
2022/10/25 10:18:21;;;;;;;19.45;2.90;;;14.60;99.90;;;;;;5035919;28;20064;-75
2022/10/25 10:21:08;;;;;;;19.33;2.30;;;14.60;99.90;;;;;;5037051;28;20049;-72
2022/10/25 10:23:42;;;;;;;19.67;2.53;;;14.60;99.90;;;;;;5035674;28;20057;-75
2022/10/25 10:26:23;;;;;;;19.80;2.60;;;14.50;99.90;;;;;;5046282;28;20048;-73
2022/10/25 10:29:15;;;;;;;16.48;2.22;;;14.60;99.90;;;;;;5040755;28;20041;-74
2022/10/25 10:31:48;;;;;;;18.75;2.53;;;14.70;99.90;;;;;;5041456;28;20380;-75
2022/10/25 10:34:23;;;;;;;20.05;2.50;;;14.90;99.90;;;;;;5036739;28;20041;-73
2022/10/25 10:37:11;;;;;;;26.02;2.97;;;15.10;99.90;;;;;;5035503;28;20045;-73
2022/10/25 10:39:50;;;;;;;20.25;2.78;;;15.20;99.90;;;;;;5036535;28;20056;-74
2022/10/25 10:42:28;;;;;;;16.20;2.33;;;15.30;99.90;;;;;;5035358;28;20052;-75
2022/10/25 10:45:02;;;;;;;20.70;2.25;;;15.40;99.90;;;;;;5036213;28;20061;-75
2022/10/25 10:47:34;;;;;;;12.63;2.10;;;15.40;99.90;;;;;;5036395;28;20096;-74
2022/10/25 10:50:19;;;;;;;13.82;2.20;;;15.50;99.90;;;;;;5033474;28;20060;-75
2022/10/25 10:53:05;;;;;;;12.50;2.03;;;15.70;99.90;;;;;;5036321;28;20053;-75
2022/10/25 10:55:36;;;;;;;11.90;1.95;;;15.80;99.90;;;;;;5035072;28;20483;-74
2022/10/25 10:58:17;;;;;;;11.43;1.92;;;15.90;99.90;;;;;;5036196;28;20465;-74
2022/10/25 11:01:12;;;;;;;13.75;1.80;;;16.00;99.90;;;;;;5018913;28;20057;-73
2022/10/25 11:03:40;;;;;;;13.93;1.65;;;16.00;99.90;;;;;;5034388;28;20041;-74
2022/10/25 11:06:29;;;;;;;14.00;1.95;;;16.00;99.90;;;;;;5051764;28;20052;-73
2022/10/25 11:09:23;;;;;;;7.50;1.30;;;16.00;99.90;;;;;;5039609;28;20041;-73
2022/10/25 11:12:13;;;;;;;10.57;1.40;;;16.10;99.90;;;;;;5044032;28;20056;-73
2022/10/25 11:14:41;;;;;;;9.32;1.63;;;16.20;99.90;;;;;;5056133;28;20056;-74
2022/10/25 11:17:45;;;;;;;12.25;1.70;;;16.30;99.90;;;;;;5053406;28;20045;-74
2022/10/25 11:20:32;;;;;;;9.93;1.63;;;16.40;99.90;;;;;;5032611;28;20498;-74
2022/10/25 11:23:15;;;;;;;10.48;1.55;;;16.60;99.90;;;;;;5034372;28;20521;-74
2022/10/25 11:26:00;;;;;;;10.73;1.52;;;16.70;99.90;;;;;;5015200;28;20050;-73
2022/10/25 11:28:36;;;;;;;9.23;1.60;;;16.90;99.90;;;;;;5014553;28;20400;-73
2022/10/25 11:31:33;;;;;;;9.88;1.70;;;17.10;99.90;;;;;;5016449;28;20057;-72
2022/10/25 11:34:31;;;;;;;8.77;1.25;;;17.20;99.90;;;;;;5016019;28;20055;-73
2022/10/25 11:37:06;;;;;;;6.88;1.27;;;17.30;99.90;;;;;;4997349;28;20057;-73
2022/10/25 11:39:57;;;;;;;10.10;1.70;;;17.30;99.90;;;;;;5016254;28;20049;-73
2022/10/25 11:42:34;;;;;;;6.00;1.13;;;17.30;99.90;;;;;;5014679;28;20052;-73
2022/10/25 11:45:20;;;;;;;6.80;1.08;;;17.20;99.90;;;;;;5015292;28;20054;-75
2022/10/25 11:47:54;;;;;;;8.00;1.50;;;17.30;99.90;;;;;;5015425;28;20062;-74
2022/10/25 11:50:39;;;;;;;10.52;1.30;;;17.30;99.90;;;;;;4997106;28;20069;-73
2022/10/25 11:53:32;;;;;;;7.65;1.10;;;17.30;99.90;;;;;;5015315;28;20069;-73
2022/10/25 11:56:13;;;;;;;8.07;1.35;;;17.40;99.90;;;;;;4997045;28;20065;-73
2022/10/25 11:58:44;;;;;;;13.27;1.63;;;17.50;99.90;;;;;;5015263;28;20444;-73
2022/10/25 12:01:36;;;;;;;8.10;1.30;;;17.50;99.90;;;;;;5014704;28;20381;-73
2022/10/25 12:04:29;;;;;;;7.90;1.50;;;17.40;99.90;;;;;;5015243;28;20064;-74
2022/10/25 12:07:23;;;;;;;12.45;1.90;;;17.30;99.90;;;;;;5015170;28;20053;-73
2022/10/25 12:10:31;;;;;;;9.20;1.45;;;17.30;99.90;;;;;;5014060;28;20077;-73
2022/10/25 12:13:09;;;;;;;10.93;1.75;;;17.20;99.90;;;;;;5015134;28;20461;-72
2022/10/25 12:15:45;;;;;;;9.38;1.50;;;17.10;99.90;;;;;;5013520;28;20376;-74
2022/10/25 12:18:34;;;;;;;7.95;1.30;;;17.10;99.90;;;;;;5014743;28;20045;-74
2022/10/25 12:21:02;;;;;;;12.88;1.38;;;17.10;99.90;;;;;;5014957;28;20053;-73
2022/10/25 12:23:39;;;;;;;10.20;1.63;;;17.10;99.90;;;;;;5013839;28;20065;-74
2022/10/25 12:26:14;;;;;;;5.68;1.10;;;17.20;99.90;;;;;;5014880;28;20392;-73
2022/10/25 12:28:44;;;;;;;6.75;1.10;;;17.30;99.90;;;;;;4980267;28;20465;-73
2022/10/25 12:31:11;;;;;;;7.68;1.23;;;17.40;99.90;;;;;;5014600;28;20056;-72
2022/10/25 12:33:45;;;;;;;8.13;0.97;;;17.50;99.90;;;;;;5016257;28;20060;-74
2022/10/25 12:36:42;;;;;;;4.50;1.10;;;17.60;99.90;;;;;;5035523;28;20052;-74
2022/10/25 12:39:17;;;;;;;;;;;17.70;99.90;;;;;;5034685;28;20042;-73
2022/10/25 12:41:49;;;;;;;7.53;1.00;;;17.60;99.90;;;;;;5021460;28;20185;-70
2022/10/25 12:44:44;;;;;;;7.75;1.20;;;17.60;99.90;;;;;;5026339;28;20038;-71
2022/10/25 12:47:43;;;;;;;7.85;1.42;;;17.50;99.90;;;;;;5014735;28;20054;-72
2022/10/25 12:50:31;;;;;;;5.45;1.00;;;17.30;99.90;;;;;;5013835;28;20052;-72
2022/10/25 12:53:30;;;;;;;5.53;1.02;;;17.30;99.90;;;;;;5026826;28;20056;-73
2022/10/25 12:56:17;;;;;;;5.18;0.98;;;17.30;99.90;;;;;;5016499;28;20072;-73
2022/10/25 12:59:05;;;;;;;7.13;1.10;;;17.30;99.90;;;;;;5034630;28;20049;-72
2022/10/25 13:02:02;;;;;;;9.82;1.27;;;17.40;99.90;;;;;;5033307;28;20369;-72
2022/10/25 13:04:37;;;;;;;7.78;1.25;;;17.50;99.90;;;;;;4975793;28;20053;-70
2022/10/25 13:07:07;;;;;;;8.18;1.27;;;17.50;99.90;;;;;;5015085;28;20052;-71
2022/10/25 13:09:36;;;;;;;9.48;1.70;;;17.50;99.90;;;;;;5009498;28;20042;-71
2022/10/25 13:12:14;;;;;;;7.28;1.52;;;17.50;99.90;;;;;;5034507;28;20049;-71
2022/10/25 13:14:49;;;;;;;10.07;1.95;;;17.40;99.90;;;;;;5038225;28;20054;-73